Carlsborg, Washington
Current Conditions -  °F | °C
As of 11:53 AM on Saturday 25 Oct 2014 (Local Time) from KCLM Reporting Station
Light Rain Light Rain  
Wind Chill: 11°   Ceiling: 800
Heat Index: 11°   Visibility: 10mi
Dew Point:   Wind: 0mph
Humidity: 89%   Direction: NA
Pressure: 29.41"   Gusts: NA
Location:  48.09°N, 123.17°W
Report Text: KCLM 251853Z AUTO 00000KT 10SM -RA OVC008 11/09 A2941 RMK AO2 SLP960 P0000 T01060089 TSNO $
Loading
Personal Weather Stations






























Interactive Weather Map
Tropical Storm Tracking
New forecast layout! Learn more

10-Day Weather Forecast

Advertisements
Track Severe Weather on mobile